sensor_id;sensor_type;location;lat;lon;timestamp;pressure;altitude;pressure_sealevel;temperature;humidity
72560;BME280;62987;52.382;9.752;2023-03-14T00:00:28;98373.34;;;11.84;71.37
72560;BME280;62987;52.382;9.752;2023-03-14T00:02:56;98369.38;;;11.99;70.88
72560;BME280;62987;52.382;9.752;2023-03-14T00:05:26;98365.41;;;11.93;70.99
72560;BME280;62987;52.382;9.752;2023-03-14T00:07:54;98361.06;;;11.92;71.10
72560;BME280;62987;52.382;9.752;2023-03-14T00:10:22;98342.91;;;11.86;71.81
72560;BME280;62987;52.382;9.752;2023-03-14T00:12:50;98315.47;;;11.86;71.61
72560;BME280;62987;52.382;9.752;2023-03-14T00:15:17;98314.66;;;11.95;71.47
72560;BME280;62987;52.382;9.752;2023-03-14T00:17:45;98295.44;;;11.91;71.68
72560;BME280;62987;52.382;9.752;2023-03-14T00:20:13;98294.41;;;11.83;71.81
72560;BME280;62987;52.382;9.752;2023-03-14T00:22:42;98326.81;;;11.88;71.87
72560;BME280;62987;52.382;9.752;2023-03-14T00:25:11;98314.22;;;11.90;72.00
72560;BME280;62987;52.382;9.752;2023-03-14T00:27:39;98302.38;;;12.04;71.11
72560;BME280;62987;52.382;9.752;2023-03-14T00:30:08;98288.03;;;11.95;71.41
72560;BME280;62987;52.382;9.752;2023-03-14T00:32:36;98334.22;;;12.05;71.45
72560;BME280;62987;52.382;9.752;2023-03-14T00:35:05;98316.75;;;11.91;71.74
72560;BME280;62987;52.382;9.752;2023-03-14T00:37:33;98332.09;;;11.99;72.18
72560;BME280;62987;52.382;9.752;2023-03-14T00:40:03;98336.69;;;11.97;72.02
72560;BME280;62987;52.382;9.752;2023-03-14T00:42:33;98325.31;;;11.95;72.25
72560;BME280;62987;52.382;9.752;2023-03-14T00:45:01;98335.34;;;11.82;72.66
72560;BME280;62987;52.382;9.752;2023-03-14T00:47:33;98336.06;;;11.84;72.85
72560;BME280;62987;52.382;9.752;2023-03-14T00:50:01;98347.34;;;11.97;72.60
72560;BME280;62987;52.382;9.752;2023-03-14T00:52:29;98351.97;;;11.95;72.85
72560;BME280;62987;52.382;9.752;2023-03-14T00:54:56;98357.03;;;11.98;72.79
72560;BME280;62987;52.382;9.752;2023-03-14T00:57:26;98351.72;;;11.98;72.68
72560;BME280;62987;52.382;9.752;2023-03-14T00:59:54;98343.25;;;11.93;73.03
72560;BME280;62987;52.382;9.752;2023-03-14T01:02:22;98343.53;;;11.90;73.20
72560;BME280;62987;52.382;9.752;2023-03-14T01:04:50;98326.38;;;11.83;73.08
72560;BME280;62987;52.382;9.752;2023-03-14T01:07:18;98309.03;;;11.88;73.54
72560;BME280;62987;52.382;9.752;2023-03-14T01:09:45;98301.00;;;11.79;73.58
72560;BME280;62987;52.382;9.752;2023-03-14T01:12:13;98298.66;;;11.85;73.49
72560;BME280;62987;52.382;9.752;2023-03-14T01:14:43;98297.78;;;11.85;73.54
72560;BME280;62987;52.382;9.752;2023-03-14T01:17:11;98292.53;;;11.74;73.98
72560;BME280;62987;52.382;9.752;2023-03-14T01:19:39;98196.72;;;11.11;74.12
72560;BME280;62987;52.382;9.752;2023-03-14T01:22:07;98288.69;;;11.67;74.80
72560;BME280;62987;52.382;9.752;2023-03-14T01:24:37;98270.09;;;11.55;74.68
72560;BME280;62987;52.382;9.752;2023-03-14T01:27:05;98276.34;;;11.66;74.30
72560;BME280;62987;52.382;9.752;2023-03-14T01:29:33;98272.56;;;11.68;74.36
72560;BME280;62987;52.382;9.752;2023-03-14T01:32:03;98273.22;;;11.60;75.05
72560;BME280;62987;52.382;9.752;2023-03-14T01:34:32;98293.22;;;11.55;75.32
72560;BME280;62987;52.382;9.752;2023-03-14T01:36:59;98286.16;;;11.65;74.37
72560;BME280;62987;52.382;9.752;2023-03-14T01:39:29;98258.69;;;11.65;74.16
72560;BME280;62987;52.382;9.752;2023-03-14T01:41:56;98274.97;;;11.50;73.80
72560;BME280;62987;52.382;9.752;2023-03-14T01:44:26;98291.31;;;11.78;73.04
72560;BME280;62987;52.382;9.752;2023-03-14T01:46:54;98291.56;;;11.75;73.26
72560;BME280;62987;52.382;9.752;2023-03-14T01:49:26;98301.81;;;11.58;73.79
72560;BME280;62987;52.382;9.752;2023-03-14T01:52:04;98286.47;;;11.72;73.09
72560;BME280;62987;52.382;9.752;2023-03-14T01:54:37;98248.09;;;11.74;73.03
72560;BME280;62987;52.382;9.752;2023-03-14T01:57:10;98237.09;;;11.68;73.39
72560;BME280;62987;52.382;9.752;2023-03-14T01:59:42;98240.88;;;11.65;73.25
72560;BME280;62987;52.382;9.752;2023-03-14T02:02:12;98260.69;;;11.72;73.42
72560;BME280;62987;52.382;9.752;2023-03-14T02:04:42;98262.97;;;11.77;73.19
72560;BME280;62987;52.382;9.752;2023-03-14T02:07:16;98258.88;;;11.73;73.06
72560;BME280;62987;52.382;9.752;2023-03-14T02:09:56;98271.53;;;11.80;72.88
72560;BME280;62987;52.382;9.752;2023-03-14T02:12:29;98264.69;;;11.78;73.55
72560;BME280;62987;52.382;9.752;2023-03-14T02:15:11;98267.47;;;11.76;73.58
72560;BME280;62987;52.382;9.752;2023-03-14T02:17:49;98287.06;;;11.75;73.84
72560;BME280;62987;52.382;9.752;2023-03-14T02:20:34;98285.13;;;11.77;74.00
72560;BME280;62987;52.382;9.752;2023-03-14T02:23:06;98290.47;;;11.77;73.96
72560;BME280;62987;52.382;9.752;2023-03-14T02:25:39;98300.25;;;11.77;74.33
72560;BME280;62987;52.382;9.752;2023-03-14T02:28:11;98277.13;;;11.56;74.87
72560;BME280;62987;52.382;9.752;2023-03-14T02:30:40;98274.75;;;11.53;74.94
72560;BME280;62987;52.382;9.752;2023-03-14T02:33:10;98279.34;;;11.72;74.38
72560;BME280;62987;52.382;9.752;2023-03-14T02:35:45;98279.56;;;11.69;74.21
72560;BME280;62987;52.382;9.752;2023-03-14T02:38:17;98263.16;;;11.64;73.92
72560;BME280;62987;52.382;9.752;2023-03-14T02:40:49;98269.06;;;11.68;74.30
72560;BME280;62987;52.382;9.752;2023-03-14T02:43:19;98279.69;;;11.68;74.22
72560;BME280;62987;52.382;9.752;2023-03-14T02:45:52;98276.34;;;11.66;74.34
72560;BME280;62987;52.382;9.752;2023-03-14T02:48:25;98236.63;;;11.53;74.20
72560;BME280;62987;52.382;9.752;2023-03-14T02:50:57;98264.84;;;11.65;73.76
72560;BME280;62987;52.382;9.752;2023-03-14T02:53:27;98250.56;;;11.66;73.31
72560;BME280;62987;52.382;9.752;2023-03-14T02:55:59;98251.66;;;11.63;73.38
72560;BME280;62987;52.382;9.752;2023-03-14T02:58:30;98215.66;;;11.39;73.78
72560;BME280;62987;52.382;9.752;2023-03-14T03:01:06;98251.03;;;11.50;73.88
72560;BME280;62987;52.382;9.752;2023-03-14T03:03:34;98217.28;;;11.30;73.67
72560;BME280;62987;52.382;9.752;2023-03-14T03:06:03;98254.13;;;11.55;73.38
72560;BME280;62987;52.382;9.752;2023-03-14T03:08:31;98245.06;;;11.58;72.76
72560;BME280;62987;52.382;9.752;2023-03-14T03:10:59;98247.31;;;11.62;72.51
72560;BME280;62987;52.382;9.752;2023-03-14T03:13:32;98241.66;;;11.56;72.50
72560;BME280;62987;52.382;9.752;2023-03-14T03:16:02;98254.13;;;11.55;72.68
72560;BME280;62987;52.382;9.752;2023-03-14T03:18:30;98245.78;;;11.60;72.38
72560;BME280;62987;52.382;9.752;2023-03-14T03:20:59;98236.75;;;11.51;72.88
72560;BME280;62987;52.382;9.752;2023-03-14T03:23:28;98245.47;;;11.53;73.00
72560;BME280;62987;52.382;9.752;2023-03-14T03:25:59;98233.69;;;11.56;72.62
72560;BME280;62987;52.382;9.752;2023-03-14T03:28:27;98224.72;;;11.57;72.22
72560;BME280;62987;52.382;9.752;2023-03-14T03:30:57;98234.41;;;11.58;72.02
72560;BME280;62987;52.382;9.752;2023-03-14T03:33:40;98213.44;;;11.44;72.21
72560;BME280;62987;52.382;9.752;2023-03-14T03:36:23;98215.56;;;11.50;72.17
72560;BME280;62987;52.382;9.752;2023-03-14T03:38:57;98218.97;;;11.52;72.42
72560;BME280;62987;52.382;9.752;2023-03-14T03:41:25;98214.84;;;11.48;72.16
72560;BME280;62987;52.382;9.752;2023-03-14T03:43:54;98220.78;;;11.51;72.77
72560;BME280;62987;52.382;9.752;2023-03-14T03:46:24;98224.09;;;11.44;74.19
72560;BME280;62987;52.382;9.752;2023-03-14T03:48:54;98219.09;;;11.09;78.75
72560;BME280;62987;52.382;9.752;2023-03-14T03:51:23;98228.16;;;10.86;82.07
72560;BME280;62987;52.382;9.752;2023-03-14T03:53:51;98272.38;;;10.32;100.00
72560;BME280;62987;52.382;9.752;2023-03-14T03:56:26;98280.94;;;9.58;100.00
72560;BME280;62987;52.382;9.752;2023-03-14T03:58:54;98287.00;;;9.36;100.00
72560;BME280;62987;52.382;9.752;2023-03-14T04:01:24;98269.78;;;9.53;100.00
72560;BME280;62987;52.382;9.752;2023-03-14T04:03:55;98265.97;;;9.57;100.00
72560;BME280;62987;52.382;9.752;2023-03-14T04:06:24;98225.31;;;9.45;100.00
72560;BME280;62987;52.382;9.752;2023-03-14T04:08:55;98230.25;;;9.50;100.00
72560;BME280;62987;52.382;9.752;2023-03-14T04:11:43;98227.34;;;9.42;98.95
72560;BME280;62987;52.382;9.752;2023-03-14T04:14:25;98210.94;;;9.26;97.40
72560;BME280;62987;52.382;9.752;2023-03-14T04:17:11;98249.88;;;9.36;96.54
72560;BME280;62987;52.382;9.752;2023-03-14T04:19:39;98246.63;;;9.33;96.35
72560;BME280;62987;52.382;9.752;2023-03-14T04:22:07;98246.13;;;9.28;94.44
72560;BME280;62987;52.382;9.752;2023-03-14T04:24:44;98235.00;;;9.11;95.39
72560;BME280;62987;52.382;9.752;2023-03-14T04:27:12;98232.91;;;9.04;94.26
72560;BME280;62987;52.382;9.752;2023-03-14T04:29:42;98244.66;;;9.12;94.18
72560;BME280;62987;52.382;9.752;2023-03-14T04:32:15;98245.22;;;9.05;95.22
72560;BME280;62987;52.382;9.752;2023-03-14T04:34:43;98241.50;;;9.07;95.25
72560;BME280;62987;52.382;9.752;2023-03-14T04:37:11;98243.69;;;9.13;93.13
72560;BME280;62987;52.382;9.752;2023-03-14T04:39:42;98230.75;;;9.09;92.98
72560;BME280;62987;52.382;9.752;2023-03-14T04:42:17;98229.81;;;9.10;91.83
72560;BME280;62987;52.382;9.752;2023-03-14T04:44:46;98232.44;;;9.10;91.27
72560;BME280;62987;52.382;9.752;2023-03-14T04:47:18;98211.56;;;8.94;91.32
72560;BME280;62987;52.382;9.752;2023-03-14T04:49:47;98230.91;;;9.07;90.75
72560;BME280;62987;52.382;9.752;2023-03-14T04:52:16;98168.97;;;8.73;89.44
72560;BME280;62987;52.382;9.752;2023-03-14T04:54:44;98219.09;;;9.11;88.71
72560;BME280;62987;52.382;9.752;2023-03-14T04:57:12;98196.50;;;8.95;89.28
72560;BME280;62987;52.382;9.752;2023-03-14T04:59:40;98223.63;;;8.98;89.78
72560;BME280;62987;52.382;9.752;2023-03-14T05:02:29;98217.09;;;8.91;89.10
72560;BME280;62987;52.382;9.752;2023-03-14T05:05:07;98183.94;;;8.86;88.57
72560;BME280;62987;52.382;9.752;2023-03-14T05:07:51;98201.19;;;8.91;89.26
72560;BME280;62987;52.382;9.752;2023-03-14T05:10:35;98192.28;;;8.92;88.91
72560;BME280;62987;52.382;9.752;2023-03-14T05:13:29;98192.63;;;8.88;89.15
72560;BME280;62987;52.382;9.752;2023-03-14T05:16:15;98141.13;;;8.68;89.12
72560;BME280;62987;52.382;9.752;2023-03-14T05:18:47;98172.84;;;8.80;89.31
72560;BME280;62987;52.382;9.752;2023-03-14T05:21:38;98191.28;;;8.82;89.72
72560;BME280;62987;52.382;9.752;2023-03-14T05:24:24;98160.16;;;8.62;90.23
72560;BME280;62987;52.382;9.752;2023-03-14T05:27:06;98191.63;;;8.77;90.32
72560;BME280;62987;52.382;9.752;2023-03-14T05:29:53;98200.22;;;8.33;92.48
72560;BME280;62987;52.382;9.752;2023-03-14T05:32:21;98189.00;;;8.17;94.58
72560;BME280;62987;52.382;9.752;2023-03-14T05:35:16;98195.13;;;8.30;94.43
72560;BME280;62987;52.382;9.752;2023-03-14T05:37:51;98196.91;;;8.30;94.06
72560;BME280;62987;52.382;9.752;2023-03-14T05:40:35;98197.28;;;8.49;93.83
72560;BME280;62987;52.382;9.752;2023-03-14T05:43:32;98200.78;;;8.50;92.91
72560;BME280;62987;52.382;9.752;2023-03-14T05:46:18;98180.31;;;8.52;93.54
72560;BME280;62987;52.382;9.752;2023-03-14T05:48:53;98187.44;;;8.51;93.55
72560;BME280;62987;52.382;9.752;2023-03-14T05:51:39;98188.56;;;8.60;92.68
72560;BME280;62987;52.382;9.752;2023-03-14T05:54:18;98184.94;;;8.61;92.37
72560;BME280;62987;52.382;9.752;2023-03-14T05:56:59;98167.31;;;8.49;93.10
72560;BME280;62987;52.382;9.752;2023-03-14T05:59:30;98191.41;;;8.57;92.56
72560;BME280;62987;52.382;9.752;2023-03-14T06:02:16;98163.47;;;8.53;92.02
72560;BME280;62987;52.382;9.752;2023-03-14T06:04:56;98181.06;;;8.54;92.22
72560;BME280;62987;52.382;9.752;2023-03-14T06:07:26;98163.97;;;8.58;92.21
72560;BME280;62987;52.382;9.752;2023-03-14T06:09:54;98167.84;;;8.65;91.41
72560;BME280;62987;52.382;9.752;2023-03-14T06:12:22;98167.63;;;8.68;91.69
72560;BME280;62987;52.382;9.752;2023-03-14T06:14:50;98168.88;;;8.75;90.80
72560;BME280;62987;52.382;9.752;2023-03-14T06:17:18;98170.31;;;8.79;90.10
72560;BME280;62987;52.382;9.752;2023-03-14T06:19:57;98180.59;;;8.95;90.27
72560;BME280;62987;52.382;9.752;2023-03-14T06:22:26;98177.72;;;8.98;89.44
72560;BME280;62987;52.382;9.752;2023-03-14T06:24:54;98183.41;;;9.04;88.64
72560;BME280;62987;52.382;9.752;2023-03-14T06:27:24;98172.31;;;8.99;88.01
72560;BME280;62987;52.382;9.752;2023-03-14T06:29:54;98188.72;;;9.15;87.88
72560;BME280;62987;52.382;9.752;2023-03-14T06:32:23;98194.00;;;9.15;88.68
72560;BME280;62987;52.382;9.752;2023-03-14T06:34:55;98199.69;;;9.22;87.94
72560;BME280;62987;52.382;9.752;2023-03-14T06:37:30;98194.75;;;9.29;87.33
72560;BME280;62987;52.382;9.752;2023-03-14T06:39:58;98191.63;;;9.35;86.85
72560;BME280;62987;52.382;9.752;2023-03-14T06:42:44;98195.97;;;9.36;87.11
72560;BME280;62987;52.382;9.752;2023-03-14T06:45:15;98187.44;;;9.43;86.32
72560;BME280;62987;52.382;9.752;2023-03-14T06:47:44;98195.38;;;9.54;84.77
72560;BME280;62987;52.382;9.752;2023-03-14T06:50:12;98191.66;;;9.57;84.06
72560;BME280;62987;52.382;9.752;2023-03-14T06:52:43;98205.88;;;9.67;83.13
72560;BME280;62987;52.382;9.752;2023-03-14T06:55:18;98197.44;;;9.62;83.19
72560;BME280;62987;52.382;9.752;2023-03-14T06:57:49;98203.75;;;9.72;82.38
72560;BME280;62987;52.382;9.752;2023-03-14T07:00:18;98206.88;;;9.77;81.49
72560;BME280;62987;52.382;9.752;2023-03-14T07:02:46;98183.69;;;9.79;80.37
72560;BME280;62987;52.382;9.752;2023-03-14T07:05:24;98204.56;;;10.17;78.55
72560;BME280;62987;52.382;9.752;2023-03-14T07:07:53;98210.31;;;10.33;77.54
72560;BME280;62987;52.382;9.752;2023-03-14T07:10:22;98201.75;;;10.08;78.92
72560;BME280;62987;52.382;9.752;2023-03-14T07:12:50;98207.09;;;9.85;82.86
72560;BME280;62987;52.382;9.752;2023-03-14T07:15:20;98220.13;;;9.77;83.22
72560;BME280;62987;52.382;9.752;2023-03-14T07:17:54;98203.75;;;9.72;82.46
72560;BME280;62987;52.382;9.752;2023-03-14T07:20:23;98205.53;;;9.72;83.10
72560;BME280;62987;52.382;9.752;2023-03-14T07:22:53;98203.97;;;9.69;82.37
72560;BME280;62987;52.382;9.752;2023-03-14T07:25:37;98209.75;;;9.74;82.08
72560;BME280;62987;52.382;9.752;2023-03-14T07:28:06;98209.50;;;9.66;82.25
72560;BME280;62987;52.382;9.752;2023-03-14T07:30:35;98212.66;;;9.71;81.91
72560;BME280;62987;52.382;9.752;2023-03-14T07:33:10;98217.13;;;9.71;82.07
72560;BME280;62987;52.382;9.752;2023-03-14T07:35:38;98216.66;;;9.66;81.55
72560;BME280;62987;52.382;9.752;2023-03-14T07:38:08;98221.09;;;9.76;81.67
72560;BME280;62987;52.382;9.752;2023-03-14T07:40:43;98221.47;;;9.72;81.46
72560;BME280;62987;52.382;9.752;2023-03-14T07:43:12;98222.16;;;9.74;82.28
72560;BME280;62987;52.382;9.752;2023-03-14T07:45:45;98223.63;;;9.78;82.29
72560;BME280;62987;52.382;9.752;2023-03-14T07:48:24;98229.28;;;9.73;82.79
72560;BME280;62987;52.382;9.752;2023-03-14T07:50:54;98216.50;;;9.67;85.01
72560;BME280;62987;52.382;9.752;2023-03-14T07:53:24;98233.16;;;9.58;86.14
72560;BME280;62987;52.382;9.752;2023-03-14T07:55:53;98236.50;;;9.49;87.47
72560;BME280;62987;52.382;9.752;2023-03-14T07:58:21;98226.50;;;9.41;90.35
72560;BME280;62987;52.382;9.752;2023-03-14T08:00:50;98237.09;;;9.41;89.69
72560;BME280;62987;52.382;9.752;2023-03-14T08:03:18;98236.25;;;9.41;90.33
72560;BME280;62987;52.382;9.752;2023-03-14T08:05:47;98217.94;;;9.38;91.77
72560;BME280;62987;52.382;9.752;2023-03-14T08:08:15;98229.28;;;9.40;91.92
72560;BME280;62987;52.382;9.752;2023-03-14T08:10:45;98217.94;;;9.27;91.93
72560;BME280;62987;52.382;9.752;2023-03-14T08:13:14;98221.06;;;9.32;91.57
72560;BME280;62987;52.382;9.752;2023-03-14T08:15:42;98233.50;;;9.42;92.27
72560;BME280;62987;52.382;9.752;2023-03-14T08:18:10;98209.59;;;9.31;90.11
72560;BME280;62987;52.382;9.752;2023-03-14T08:20:37;98234.47;;;9.52;90.45
72560;BME280;62987;52.382;9.752;2023-03-14T08:23:05;98230.34;;;9.48;89.39
72560;BME280;62987;52.382;9.752;2023-03-14T08:25:33;98224.09;;;9.49;89.31
72560;BME280;62987;52.382;9.752;2023-03-14T08:28:04;98215.91;;;9.63;88.97
72560;BME280;62987;52.382;9.752;2023-03-14T08:30:31;98229.06;;;9.76;87.48
72560;BME280;62987;52.382;9.752;2023-03-14T08:32:59;98226.75;;;9.94;87.40
72560;BME280;62987;52.382;9.752;2023-03-14T08:35:28;98226.88;;;11.42;80.18
72560;BME280;62987;52.382;9.752;2023-03-14T08:37:55;98221.19;;;13.44;70.17
72560;BME280;62987;52.382;9.752;2023-03-14T08:40:23;98223.31;;;12.73;70.47
72560;BME280;62987;52.382;9.752;2023-03-14T08:42:52;98235.13;;;11.18;76.84
72560;BME280;62987;52.382;9.752;2023-03-14T08:45:21;98225.41;;;10.33;81.28
72560;BME280;62987;52.382;9.752;2023-03-14T08:47:51;98230.97;;;10.08;83.88
72560;BME280;62987;52.382;9.752;2023-03-14T08:50:19;98201.44;;;9.90;85.01
72560;BME280;62987;52.382;9.752;2023-03-14T08:52:47;98226.09;;;10.46;83.91
72560;BME280;62987;52.382;9.752;2023-03-14T08:55:15;98226.72;;;10.38;83.75
72560;BME280;62987;52.382;9.752;2023-03-14T08:57:43;98228.03;;;10.44;83.77
72560;BME280;62987;52.382;9.752;2023-03-14T09:00:12;98230.72;;;10.33;84.84
72560;BME280;62987;52.382;9.752;2023-03-14T09:02:43;98225.91;;;10.27;85.25
72560;BME280;62987;52.382;9.752;2023-03-14T09:05:11;98230.50;;;10.25;86.71
72560;BME280;62987;52.382;9.752;2023-03-14T09:07:40;98236.19;;;10.20;86.33
72560;BME280;62987;52.382;9.752;2023-03-14T09:10:10;98231.94;;;9.95;91.14
72560;BME280;62987;52.382;9.752;2023-03-14T09:12:38;98233.19;;;9.91;93.96
72560;BME280;62987;52.382;9.752;2023-03-14T09:15:07;98224.72;;;9.75;94.34
72560;BME280;62987;52.382;9.752;2023-03-14T09:17:35;98226.91;;;9.70;94.23
72560;BME280;62987;52.382;9.752;2023-03-14T09:20:06;98210.47;;;9.76;95.21
72560;BME280;62987;52.382;9.752;2023-03-14T09:22:35;98222.31;;;9.72;93.19
72560;BME280;62987;52.382;9.752;2023-03-14T09:25:04;98237.63;;;9.80;93.07
72560;BME280;62987;52.382;9.752;2023-03-14T09:27:32;98225.31;;;9.79;93.21
72560;BME280;62987;52.382;9.752;2023-03-14T09:30:00;98241.84;;;9.93;93.31
72560;BME280;62987;52.382;9.752;2023-03-14T09:32:29;98242.56;;;10.18;91.93
72560;BME280;62987;52.382;9.752;2023-03-14T09:34:58;98241.50;;;10.63;89.92
72560;BME280;62987;52.382;9.752;2023-03-14T09:37:27;98236.34;;;10.94;87.13
72560;BME280;62987;52.382;9.752;2023-03-14T09:39:55;98241.66;;;10.94;86.59
72560;BME280;62987;52.382;9.752;2023-03-14T09:42:25;98244.91;;;10.65;86.91
72560;BME280;62987;52.382;9.752;2023-03-14T09:44:59;98240.53;;;10.64;87.99
72560;BME280;62987;52.382;9.752;2023-03-14T09:47:29;98236.19;;;10.74;88.16
72560;BME280;62987;52.382;9.752;2023-03-14T09:49:59;98212.69;;;11.62;83.69
72560;BME280;62987;52.382;9.752;2023-03-14T09:52:32;98219.22;;;12.78;77.86
72560;BME280;62987;52.382;9.752;2023-03-14T09:55:04;98231.31;;;13.11;74.34
72560;BME280;62987;52.382;9.752;2023-03-14T09:57:35;98232.88;;;13.89;71.73
72560;BME280;62987;52.382;9.752;2023-03-14T10:00:13;98226.16;;;13.85;69.90
72560;BME280;62987;52.382;9.752;2023-03-14T10:02:45;98222.91;;;12.87;74.95
72560;BME280;62987;52.382;9.752;2023-03-14T10:05:16;98208.78;;;12.27;75.67
72560;BME280;62987;52.382;9.752;2023-03-14T10:07:45;98221.47;;;12.64;76.56
72560;BME280;62987;52.382;9.752;2023-03-14T10:10:16;98214.47;;;13.01;74.33
72560;BME280;62987;52.382;9.752;2023-03-14T10:12:47;98213.91;;;12.98;73.83
72560;BME280;62987;52.382;9.752;2023-03-14T10:15:24;98233.81;;;12.65;74.20
72560;BME280;62987;52.382;9.752;2023-03-14T10:17:52;98223.44;;;12.81;73.65
72560;BME280;62987;52.382;9.752;2023-03-14T10:20:30;98233.81;;;12.65;74.58
72560;BME280;62987;52.382;9.752;2023-03-14T10:23:05;98222.81;;;12.29;75.06
72560;BME280;62987;52.382;9.752;2023-03-14T10:25:36;98223.06;;;12.17;75.30
72560;BME280;62987;52.382;9.752;2023-03-14T10:28:05;98235.41;;;12.18;75.98
72560;BME280;62987;52.382;9.752;2023-03-14T10:30:39;98219.59;;;11.95;76.68
72560;BME280;62987;52.382;9.752;2023-03-14T10:33:18;98218.22;;;12.01;76.97
72560;BME280;62987;52.382;9.752;2023-03-14T10:35:53;98204.97;;;11.80;77.48
72560;BME280;62987;52.382;9.752;2023-03-14T10:38:26;98237.59;;;12.03;77.77
72560;BME280;62987;52.382;9.752;2023-03-14T10:40:55;98227.91;;;12.02;77.15
72560;BME280;62987;52.382;9.752;2023-03-14T10:43:27;98222.69;;;11.91;77.84
72560;BME280;62987;52.382;9.752;2023-03-14T10:45:57;98242.50;;;11.56;79.42
72560;BME280;62987;52.382;9.752;2023-03-14T10:48:31;98236.66;;;11.62;79.48
72560;BME280;62987;52.382;9.752;2023-03-14T10:51:04;98231.53;;;11.71;79.45
72560;BME280;62987;52.382;9.752;2023-03-14T10:53:39;98212.97;;;11.59;79.34
72560;BME280;62987;52.382;9.752;2023-03-14T10:56:11;98226.31;;;11.90;79.47
72560;BME280;62987;52.382;9.752;2023-03-14T10:58:41;98213.41;;;11.85;78.29
72560;BME280;62987;52.382;9.752;2023-03-14T11:01:21;98225.72;;;11.86;78.27
72560;BME280;62987;52.382;9.752;2023-03-14T11:03:57;98225.81;;;11.75;79.56
72560;BME280;62987;52.382;9.752;2023-03-14T11:06:33;98225.16;;;11.83;79.89
72560;BME280;62987;52.382;9.752;2023-03-14T11:09:12;98228.88;;;11.71;79.17
72560;BME280;62987;52.382;9.752;2023-03-14T11:11:46;98219.41;;;11.57;79.74
72560;BME280;62987;52.382;9.752;2023-03-14T11:14:20;98230.81;;;11.69;79.83
72560;BME280;62987;52.382;9.752;2023-03-14T11:16:56;98218.94;;;11.73;84.20
72560;BME280;62987;52.382;9.752;2023-03-14T11:19:53;98230.84;;;11.27;87.26
72560;BME280;62987;52.382;9.752;2023-03-14T11:22:33;98285.91;;;10.95;91.73
72560;BME280;62987;52.382;9.752;2023-03-14T11:25:21;60620.00;;;-143.13;100.00
72560;BME280;62987;52.382;9.752;2023-03-14T11:28:01;60620.00;;;-143.13;100.00
72560;BME280;62987;52.382;9.752;2023-03-14T11:30:35;60620.00;;;-143.13;100.00
72560;BME280;62987;52.382;9.752;2023-03-14T11:33:13;60620.00;;;-143.13;100.00
72560;BME280;62987;52.382;9.752;2023-03-14T11:35:45;60620.00;;;-143.13;100.00
72560;BME280;62987;52.382;9.752;2023-03-14T11:38:25;60620.00;;;-143.13;100.00
72560;BME280;62987;52.382;9.752;2023-03-14T11:40:59;60620.00;;;-143.13;100.00
72560;BME280;62987;52.382;9.752;2023-03-14T11:43:29;60620.00;;;-143.13;100.00
72560;BME280;62987;52.382;9.752;2023-03-14T11:46:04;60620.00;;;-143.13;100.00
72560;BME280;62987;52.382;9.752;2023-03-14T11:48:38;60620.00;;;-143.13;100.00
72560;BME280;62987;52.382;9.752;2023-03-14T11:51:13;60620.00;;;-143.13;100.00
72560;BME280;62987;52.382;9.752;2023-03-14T11:53:48;60620.00;;;-143.13;100.00
72560;BME280;62987;52.382;9.752;2023-03-14T11:56:28;60620.00;;;-143.13;100.00
72560;BME280;62987;52.382;9.752;2023-03-14T11:58:59;60620.00;;;-143.13;100.00
72560;BME280;62987;52.382;9.752;2023-03-14T12:01:40;60620.00;;;-143.13;100.00
72560;BME280;62987;52.382;9.752;2023-03-14T12:04:15;60620.00;;;-143.13;100.00
72560;BME280;62987;52.382;9.752;2023-03-14T12:06:49;60620.00;;;-143.13;100.00
72560;BME280;62987;52.382;9.752;2023-03-14T12:09:19;60620.00;;;-143.13;100.00
72560;BME280;62987;52.382;9.752;2023-03-14T12:11:51;60620.00;;;-143.13;100.00
72560;BME280;62987;52.382;9.752;2023-03-14T12:14:25;60620.00;;;-143.13;100.00
72560;BME280;62987;52.382;9.752;2023-03-14T12:16:55;60620.00;;;-143.13;100.00
72560;BME280;62987;52.382;9.752;2023-03-14T12:19:33;60620.00;;;-143.13;100.00
72560;BME280;62987;52.382;9.752;2023-03-14T12:22:13;60620.00;;;-143.13;100.00
72560;BME280;62987;52.382;9.752;2023-03-14T12:24:48;60620.00;;;-143.13;100.00
72560;BME280;62987;52.382;9.752;2023-03-14T12:27:44;60620.00;;;-143.13;100.00
72560;BME280;62987;52.382;9.752;2023-03-14T12:30:23;60620.00;;;-143.13;100.00
72560;BME280;62987;52.382;9.752;2023-03-14T12:33:29;60620.00;;;-143.13;100.00
72560;BME280;62987;52.382;9.752;2023-03-14T12:35:59;60620.00;;;-143.13;100.00
72560;BME280;62987;52.382;9.752;2023-03-14T12:38:37;60620.00;;;-143.13;100.00
72560;BME280;62987;52.382;9.752;2023-03-14T12:41:14;60620.00;;;-143.13;100.00
72560;BME280;62987;52.382;9.752;2023-03-14T12:43:44;60620.00;;;-143.13;100.00
72560;BME280;62987;52.382;9.752;2023-03-14T12:46:30;60620.00;;;-143.13;100.00
72560;BME280;62987;52.382;9.752;2023-03-14T12:49:04;60620.00;;;-143.13;100.00
72560;BME280;62987;52.382;9.752;2023-03-14T12:51:37;60620.00;;;-143.13;100.00
72560;BME280;62987;52.382;9.752;2023-03-14T12:57:10;60620.00;;;-143.13;100.00
72560;BME280;62987;52.382;9.752;2023-03-14T12:59:50;60620.00;;;-143.13;100.00
72560;BME280;62987;52.382;9.752;2023-03-14T13:02:24;60620.00;;;-143.13;100.00
72560;BME280;62987;52.382;9.752;2023-03-14T13:05:01;60620.00;;;-143.13;100.00
72560;BME280;62987;52.382;9.752;2023-03-14T13:07:33;60620.00;;;-143.13;100.00
72560;BME280;62987;52.382;9.752;2023-03-14T13:10:05;60620.00;;;-143.13;100.00
72560;BME280;62987;52.382;9.752;2023-03-14T13:12:48;60620.00;;;-143.13;100.00
72560;BME280;62987;52.382;9.752;2023-03-14T13:15:21;60620.00;;;-143.13;100.00
72560;BME280;62987;52.382;9.752;2023-03-14T13:17:52;60620.00;;;-143.13;100.00
72560;BME280;62987;52.382;9.752;2023-03-14T13:20:28;60620.00;;;-143.13;100.00
72560;BME280;62987;52.382;9.752;2023-03-14T13:22:57;60620.00;;;-143.13;100.00
72560;BME280;62987;52.382;9.752;2023-03-14T13:25:29;60620.00;;;-143.13;100.00
72560;BME280;62987;52.382;9.752;2023-03-14T13:27:57;60620.00;;;-143.13;100.00
72560;BME280;62987;52.382;9.752;2023-03-14T13:30:29;60620.00;;;-143.13;100.00